createdAt,value
2016-08-09T00:00:06.825Z,66.77
2016-08-09T00:01:06.801Z,66.77
2016-08-09T00:02:06.781Z,66.48
2016-08-09T00:03:06.762Z,66.48
2016-08-09T00:04:06.737Z,66.58
2016-08-09T00:05:06.720Z,66.67
2016-08-09T00:06:06.691Z,66.77
2016-08-09T00:07:06.676Z,66.58
2016-08-09T00:08:06.650Z,66.86
2016-08-09T00:09:06.627Z,66.58
2016-08-09T00:10:06.608Z,66.48
2016-08-09T00:11:06.585Z,67.25
2016-08-09T00:12:06.564Z,67.15
2016-08-09T00:13:06.542Z,67.05
2016-08-09T00:14:06.519Z,66.96
2016-08-09T00:15:06.499Z,66.77
2016-08-09T00:16:06.478Z,66.96
2016-08-09T00:17:06.458Z,66.96
2016-08-09T00:18:06.440Z,66.96
2016-08-09T00:19:06.412Z,66.86
2016-08-09T00:20:06.390Z,66.86
2016-08-09T00:21:06.371Z,66.77
2016-08-09T00:22:06.349Z,67.05
2016-08-09T00:23:06.328Z,67.44
2016-08-09T00:24:06.306Z,67.34
2016-08-09T00:25:06.282Z,67.25
2016-08-09T00:26:06.269Z,67.05
2016-08-09T00:27:06.242Z,67.05
2016-08-09T00:28:06.219Z,66.96
2016-08-09T00:29:06.199Z,67.25
2016-08-09T00:30:06.178Z,67.54
2016-08-09T00:31:06.155Z,67.63
2016-08-09T00:32:06.133Z,67.72
2016-08-09T00:33:06.108Z,67.63
2016-08-09T00:34:06.087Z,67.63
2016-08-09T00:35:06.067Z,67.54
2016-08-09T00:36:06.049Z,67.82
2016-08-09T00:37:06.024Z,67.54
2016-08-09T00:38:06.003Z,67.54
2016-08-09T00:39:05.982Z,67.72
2016-08-09T00:40:05.974Z,67.34
2016-08-09T00:41:05.940Z,67.63
2016-08-09T00:42:05.914Z,67.54
2016-08-09T00:43:05.895Z,67.54
2016-08-09T00:44:05.873Z,67.54
2016-08-09T00:45:05.852Z,67.91
2016-08-09T00:46:05.829Z,68.3
2016-08-09T00:48:05.787Z,68.11
2016-08-09T00:49:05.766Z,68.21
2016-08-09T00:50:05.743Z,68.3
2016-08-09T00:51:05.722Z,68.3
2016-08-09T00:52:05.700Z,68.3
2016-08-09T00:53:05.677Z,68.4
2016-08-09T00:54:05.658Z,68.4
2016-08-09T00:55:05.636Z,68.17
2016-08-09T00:56:05.614Z,68.11
2016-08-09T00:57:05.590Z,68.3
2016-08-09T00:58:05.568Z,68.3
2016-08-09T00:59:05.554Z,68.3
2016-08-09T01:00:05.527Z,68.4
2016-08-09T01:01:05.505Z,68.49
2016-08-09T01:02:05.482Z,68.4
2016-08-09T01:03:05.462Z,68.59
2016-08-09T01:04:05.440Z,68.49
2016-08-09T01:05:05.418Z,68.46
2016-08-09T01:06:05.395Z,68.87
2016-08-09T01:07:05.373Z,68.87
2016-08-09T01:08:05.353Z,68.87
2016-08-09T01:09:05.332Z,68.97
2016-08-09T01:10:05.311Z,68.97
2016-08-09T01:11:05.286Z,68.78
2016-08-09T01:12:05.266Z,68.97
2016-08-09T01:13:05.244Z,68.46
2016-08-09T01:14:05.221Z,68.84
2016-08-09T01:15:05.198Z,68.87
2016-08-09T01:16:05.180Z,68.74
2016-08-09T01:17:05.169Z,69.26
2016-08-09T01:18:05.138Z,69.32
2016-08-09T01:19:05.115Z,69.42
2016-08-09T01:20:05.093Z,68.94
2016-08-09T01:21:05.073Z,68.94
2016-08-09T01:22:05.048Z,69.42
2016-08-09T01:23:05.025Z,69.23
2016-08-09T01:24:05.004Z,69.13
2016-08-09T01:25:04.985Z,69.23
2016-08-09T01:26:04.961Z,69.35
2016-08-09T01:27:04.941Z,69.26
2016-08-09T01:28:04.918Z,69.35
2016-08-09T01:29:04.902Z,69.13
2016-08-09T01:30:04.903Z,69.54
2016-08-09T01:31:04.852Z,69.17
2016-08-09T01:32:04.829Z,69.35
2016-08-09T01:33:04.807Z,69.42
2016-08-09T01:34:04.789Z,69.6
2016-08-09T01:35:04.784Z,69.26
2016-08-09T01:36:04.749Z,69.35
2016-08-09T01:37:04.723Z,69.35
2016-08-09T01:38:04.713Z,69.26
2016-08-09T01:39:04.680Z,69.23
2016-08-09T01:40:04.666Z,69.64
2016-08-09T01:41:04.633Z,69.45
2016-08-09T01:42:04.624Z,69.54
2016-08-09T01:43:04.592Z,69.45
2016-08-09T01:44:04.569Z,69.23
2016-08-09T01:45:04.549Z,69.13
2016-08-09T01:46:04.528Z,69.32
2016-08-09T01:47:04.504Z,69.6
2016-08-09T01:48:04.484Z,69.83
2016-08-09T01:49:04.460Z,69.83
2016-08-09T01:50:04.440Z,69.8
2016-08-09T01:51:04.417Z,69.93
2016-08-09T01:52:04.397Z,69.83
2016-08-09T01:53:04.373Z,69.83
2016-08-09T01:54:04.353Z,69.74
2016-08-09T01:55:04.331Z,69.64
2016-08-09T01:56:04.307Z,69.83
2016-08-09T01:57:04.286Z,69.7
2016-08-09T01:58:04.264Z,69.6
2016-08-09T01:59:04.244Z,69.42
2016-08-09T02:00:04.224Z,69.83
2016-08-09T02:01:04.216Z,69.89
2016-08-09T02:02:04.186Z,70.28
2016-08-09T02:03:04.157Z,70.18
2016-08-09T02:04:04.136Z,69.93
2016-08-09T02:05:04.113Z,69.89
2016-08-09T02:06:04.090Z,69.7
2016-08-09T02:07:04.072Z,70.09
2016-08-09T02:08:04.049Z,69.89
2016-08-09T02:09:04.025Z,70.18
2016-08-09T02:10:04.006Z,70.18
2016-08-09T02:11:03.984Z,70.28
2016-08-09T02:12:03.971Z,70.28
2016-08-09T02:13:03.938Z,70.18
2016-08-09T02:14:03.915Z,70.56
2016-08-09T02:15:03.895Z,70.76
2016-08-09T02:16:03.876Z,70.28
2016-08-09T02:17:03.854Z,70.37
2016-08-09T02:18:03.837Z,70.37
2016-08-09T02:19:03.809Z,70.28
2016-08-09T02:20:03.789Z,70.56
2016-08-09T02:21:03.764Z,70.28
2016-08-09T02:22:03.742Z,70.47
2016-08-09T02:23:03.723Z,70.37
2016-08-09T02:24:04.391Z,70.28
2016-08-09T02:25:03.680Z,70.28
2016-08-09T02:26:03.658Z,70.37
2016-08-09T02:27:03.635Z,70.47
2016-08-09T02:28:03.613Z,70.47
2016-08-09T02:29:03.590Z,70.66
2016-08-09T02:30:03.570Z,70.76
2016-08-09T02:31:03.550Z,70.85
2016-08-09T02:32:03.528Z,70.76
2016-08-09T02:33:03.507Z,70.66
2016-08-09T02:34:03.490Z,70.28
2016-08-09T02:35:03.463Z,70.18
2016-08-09T02:36:03.440Z,70.18
2016-08-09T02:37:03.417Z,70.37
2016-08-09T02:38:03.397Z,70.28
2016-08-09T02:39:03.375Z,70.37
2016-08-09T02:40:03.352Z,70.47
2016-08-09T02:41:03.334Z,70.37
2016-08-09T02:42:03.314Z,70.47
2016-08-09T02:43:03.289Z,70.66
2016-08-09T02:44:03.266Z,70.66
2016-08-09T02:45:03.243Z,70.28
2016-08-09T02:46:03.221Z,70.28
2016-08-09T02:47:03.201Z,70.56
2016-08-09T02:48:03.177Z,70.09
2016-08-09T02:49:03.158Z,69.99
2016-08-09T02:50:03.133Z,69.89
2016-08-09T02:51:03.120Z,69.89
2016-08-09T02:52:03.092Z,69.89
2016-08-09T02:53:03.071Z,69.89
2016-08-09T02:54:03.045Z,69.8
2016-08-09T02:55:03.024Z,70.09
2016-08-09T02:56:03.007Z,70.09
2016-08-09T02:57:02.980Z,70.18
2016-08-09T02:58:02.959Z,70.09
2016-08-09T02:59:02.941Z,69.8
2016-08-09T03:00:02.919Z,69.42
2016-08-09T03:01:02.901Z,69.51
2016-08-09T03:02:02.871Z,69.64
2016-08-09T03:03:02.850Z,69.7
2016-08-09T03:04:02.829Z,69.54
2016-08-09T03:05:02.807Z,69.74
2016-08-09T03:06:02.787Z,69.8
2016-08-09T03:07:02.767Z,69.83
2016-08-09T03:08:02.752Z,69.93
2016-08-09T03:09:02.720Z,69.35
2016-08-09T03:10:02.702Z,69.83
2016-08-09T03:11:02.677Z,69.35
2016-08-09T03:12:02.655Z,69.45
2016-08-09T03:13:02.636Z,69.07
2016-08-09T03:14:02.613Z,69.07
2016-08-09T03:15:02.592Z,69.35
2016-08-09T03:16:02.571Z,68.97
2016-08-09T03:17:02.554Z,68.87
2016-08-09T03:18:02.527Z,68.78
2016-08-09T03:19:02.506Z,68.94
2016-08-09T03:20:02.482Z,68.97
2016-08-09T03:21:02.459Z,68.68
2016-08-09T03:22:02.442Z,68.84
2016-08-09T03:23:02.418Z,68.97
2016-08-09T03:24:02.396Z,68.78
2016-08-09T03:25:02.378Z,68.21
2016-08-09T03:26:02.353Z,68.49
2016-08-09T03:27:02.332Z,68.4
2016-08-09T03:28:02.307Z,68.3
2016-08-09T03:29:02.288Z,68.68
2016-08-09T03:30:02.266Z,68.4
2016-08-09T03:31:02.246Z,68.78
2016-08-09T03:32:02.224Z,68.21
2016-08-09T03:33:02.202Z,68.3
2016-08-09T03:34:02.180Z,68.65
2016-08-09T03:35:02.158Z,68.27
2016-08-09T03:36:02.135Z,68.46
2016-08-09T03:37:02.119Z,68.36
2016-08-09T03:38:02.093Z,69.26
2016-08-09T03:39:02.071Z,68.68
2016-08-09T03:40:02.050Z,68.94
2016-08-09T03:41:02.028Z,68.65
2016-08-09T03:42:02.004Z,69.07
2016-08-09T03:43:01.984Z,68.74
2016-08-09T03:44:01.961Z,68.84
2016-08-09T03:45:01.940Z,68.94
2016-08-09T03:46:01.920Z,68.94
2016-08-09T03:47:01.905Z,68.55
2016-08-09T03:48:01.878Z,68.78
2016-08-09T03:49:01.855Z,68.36
2016-08-09T03:50:01.834Z,68.55
2016-08-09T03:51:01.815Z,68.84
2016-08-09T03:52:01.787Z,69.03
2016-08-09T03:53:01.767Z,68.87
2016-08-09T03:54:01.799Z,68.36
2016-08-09T03:55:01.724Z,68.65
2016-08-09T03:56:01.701Z,68.59
2016-08-09T03:57:01.680Z,68.94
2016-08-09T03:58:01.661Z,68.94
2016-08-09T03:59:01.641Z,68.74
2016-08-09T04:00:01.616Z,68.94
2016-08-09T04:01:01.600Z,68.97
2016-08-09T04:02:01.576Z,69.07
2016-08-09T04:03:01.551Z,69.03
2016-08-09T04:04:01.530Z,68.87
2016-08-09T04:05:01.510Z,68.94
2016-08-09T04:06:01.494Z,69.07
2016-08-09T04:07:01.467Z,69.03
2016-08-09T04:08:01.445Z,69.07
2016-08-09T04:09:01.420Z,68.87
2016-08-09T04:10:01.404Z,68.97
2016-08-09T04:11:01.379Z,69.07
2016-08-09T04:12:01.357Z,69.07
2016-08-09T04:13:01.336Z,68.78
2016-08-09T04:14:02.893Z,68.78
2016-08-09T04:15:01.292Z,68.78
2016-08-09T04:16:01.269Z,68.59
2016-08-09T04:17:01.249Z,68.87
2016-08-09T04:18:01.223Z,68.78
2016-08-09T04:19:01.206Z,69.26
2016-08-09T04:20:01.183Z,69.23
2016-08-09T04:21:01.167Z,68.87
2016-08-09T04:22:01.142Z,68.94
2016-08-09T04:23:01.116Z,68.87
2016-08-09T04:24:01.097Z,68.87
2016-08-09T04:25:01.071Z,69.07
2016-08-09T04:26:01.049Z,69.26
2016-08-09T04:27:01.455Z,69.26
2016-08-09T04:28:01.006Z,69.03
2016-08-09T04:29:00.988Z,69.32
2016-08-09T04:30:00.971Z,69.45
2016-08-09T04:31:01.023Z,69.42
2016-08-09T04:32:00.921Z,69.6
2016-08-09T04:33:00.901Z,69.13
2016-08-09T04:34:00.883Z,69.32
2016-08-09T04:35:00.855Z,69.7
2016-08-09T04:36:00.838Z,69.7
2016-08-09T04:37:00.816Z,69.74
2016-08-09T04:38:00.933Z,69.74
2016-08-09T04:39:00.771Z,69.83
2016-08-09T04:40:00.749Z,69.93
2016-08-09T04:41:00.729Z,69.74
2016-08-09T04:42:00.708Z,69.74
2016-08-09T04:43:00.685Z,69.74
2016-08-09T04:44:00.762Z,69.74
2016-08-09T04:45:00.642Z,69.74
2016-08-09T04:46:00.621Z,69.74
2016-08-09T04:47:00.599Z,69.64
2016-08-09T04:48:00.579Z,70.21
2016-08-09T04:49:00.555Z,70.41
2016-08-09T04:50:00.536Z,69.93
2016-08-09T04:51:00.514Z,70.41
2016-08-09T04:52:00.492Z,70.31
2016-08-09T04:53:00.473Z,71.08
2016-08-09T04:54:00.449Z,71.08
2016-08-09T04:55:00.430Z,71.27
2016-08-09T04:56:00.676Z,71.84
2016-08-09T04:57:00.389Z,72.03
2016-08-09T04:58:00.371Z,72.32
2016-08-09T04:59:00.342Z,72.48
2016-08-09T05:00:00.326Z,72.67
2016-08-09T05:01:00.300Z,73.05
2016-08-09T05:02:00.279Z,72.8
2016-08-09T05:03:00.295Z,73.82
2016-08-09T05:04:00.286Z,73.44
2016-08-09T05:05:00.251Z,73.72
2016-08-09T05:06:00.220Z,74.3
2016-08-09T05:07:00.217Z,74.58
2016-08-09T05:08:00.146Z,74.68
2016-08-09T05:09:00.183Z,74.97
2016-08-09T05:10:00.118Z,74.97
2016-08-09T05:11:00.077Z,75.07
2016-08-09T05:12:00.072Z,75.73
2016-08-09T05:13:00.036Z,75.83
2016-08-09T05:14:00.013Z,76.21
2016-08-09T05:14:59.992Z,76.5
2016-08-09T05:16:00.660Z,76.21
2016-08-09T05:16:59.954Z,76.21
2016-08-09T05:17:59.930Z,76.31
2016-08-09T05:18:59.903Z,76.89
2016-08-09T05:19:59.884Z,76.89
2016-08-09T05:20:59.860Z,76.89
2016-08-09T05:21:59.841Z,76.69
2016-08-09T05:22:59.818Z,76.69
2016-08-09T05:24:00.488Z,77.08
2016-08-09T05:24:59.793Z,77.17
2016-08-09T05:25:59.754Z,77.36
2016-08-09T05:26:59.729Z,77.46
2016-08-09T05:27:59.708Z,77.55
2016-08-09T05:28:59.687Z,77.08
2016-08-09T05:29:59.665Z,77.55
2016-08-09T05:30:59.641Z,77.55
2016-08-09T05:31:59.623Z,77.65
2016-08-09T05:33:59.582Z,77.46
2016-08-09T05:34:59.569Z,77.55
2016-08-09T05:35:59.539Z,77.65
2016-08-09T05:36:59.623Z,77.65
2016-08-09T05:37:59.494Z,77.46
2016-08-09T05:38:59.478Z,77.55
2016-08-09T05:39:59.451Z,77.84
2016-08-09T05:40:59.430Z,77.94
2016-08-09T05:41:59.407Z,78.13
2016-08-09T05:42:59.422Z,77.94
2016-08-09T05:43:59.365Z,77.94
2016-08-09T05:44:59.347Z,78.13
2016-08-09T05:45:59.327Z,77.36
2016-08-09T05:46:59.301Z,78.13
2016-08-09T05:48:59.257Z,77.36
2016-08-09T05:49:59.235Z,77.36
2016-08-09T05:50:59.217Z,77.36
2016-08-09T05:51:59.195Z,77.36
2016-08-09T05:52:59.174Z,78.13
2016-08-09T05:53:59.190Z,77.94
2016-08-09T05:54:59.131Z,77.65
2016-08-09T05:55:59.106Z,77.84
2016-08-09T05:56:59.462Z,78.03
2016-08-09T05:57:59.072Z,78.03
2016-08-09T05:58:59.046Z,78.13
2016-08-09T05:59:59.026Z,78.51
2016-08-09T06:00:58.999Z,78.61
2016-08-09T06:01:58.978Z,78.61
2016-08-09T06:02:58.960Z,78.22
2016-08-09T06:03:58.937Z,78.51
2016-08-09T06:04:58.917Z,78.51
2016-08-09T06:05:59.057Z,78.7
2016-08-09T06:06:58.892Z,77.84
2016-08-09T06:07:58.855Z,77.75
2016-08-09T06:08:58.837Z,77.84
2016-08-09T06:09:58.814Z,77.5
2016-08-09T06:10:58.797Z,77.31
2016-08-09T06:11:58.800Z,76.64
2016-08-09T06:12:58.804Z,76.73
2016-08-09T06:13:58.737Z,76.92
2016-08-09T06:14:58.716Z,76.54
2016-08-09T06:15:58.701Z,76.44
2016-08-09T06:16:58.707Z,76.25
2016-08-09T06:17:58.771Z,76.06
2016-08-09T06:18:59.371Z,75.58
2016-08-09T06:19:58.784Z,75.48
2016-08-09T06:20:58.602Z,75.04
2016-08-09T06:21:58.579Z,74.76
2016-08-09T06:22:58.560Z,74.57
2016-08-09T06:23:58.541Z,74.47
2016-08-09T06:24:58.527Z,73.99
2016-08-09T06:25:58.573Z,73.51
2016-08-09T06:26:58.488Z,72.94
2016-08-09T06:27:58.470Z,73.8
2016-08-09T06:28:58.448Z,73.13
2016-08-09T06:29:58.430Z,72.55
2016-08-09T06:30:58.413Z,72.36
2016-08-09T06:31:59.139Z,72.49
2016-08-09T06:32:58.379Z,71.92
2016-08-09T06:33:58.360Z,71.72
2016-08-09T06:34:58.343Z,71.44
2016-08-09T06:35:58.324Z,71.09
2016-08-09T06:36:58.309Z,71.09
2016-08-09T06:37:58.288Z,70.7
2016-08-09T06:38:58.571Z,70.23
2016-08-09T06:39:58.261Z,69.36
2016-08-09T06:40:58.236Z,68.5
2016-08-09T06:41:58.221Z,68.5
2016-08-09T06:42:58.219Z,68.02
2016-08-09T06:43:58.300Z,67.63
2016-08-09T06:44:58.414Z,67.63
2016-08-09T06:45:58.150Z,67.25
2016-08-09T06:46:58.132Z,66.96
2016-08-09T06:47:58.115Z,67.35
2016-08-09T06:48:58.097Z,66.39
2016-08-09T06:52:58.026Z,65.43
2016-08-09T06:53:58.015Z,64.85
2016-08-09T06:54:58.277Z,64.37
2016-08-09T06:55:58.019Z,64.28
2016-08-09T06:56:58.660Z,63.99
2016-08-09T06:57:58.119Z,64.28
2016-08-09T06:58:57.921Z,64.47
2016-08-09T06:59:57.964Z,64.18
2016-08-09T07:00:58.215Z,64.37
2016-08-09T07:01:57.919Z,64.18
2016-08-09T07:02:57.846Z,64.47
2016-08-09T07:03:57.890Z,64.28
2016-08-09T07:04:57.936Z,64.18
2016-08-09T07:05:58.989Z,64.09
2016-08-09T07:06:58.263Z,64.28
2016-08-09T07:07:57.758Z,64.28
2016-08-09T07:08:58.132Z,64.09
2016-08-09T07:09:57.736Z,63.89
2016-08-09T07:10:58.529Z,63.32
2016-08-09T07:11:57.683Z,63.7
2016-08-09T07:12:57.666Z,62.93
2016-08-09T07:13:57.650Z,63.32
2016-08-09T07:14:57.636Z,62.84
2016-08-09T07:15:57.612Z,62.84
2016-08-09T07:16:57.822Z,62.45
2016-08-09T07:17:57.637Z,62.36
2016-08-09T07:18:57.572Z,62.1
2016-08-09T07:19:57.550Z,61.91
2016-08-09T07:20:57.775Z,61.43
2016-08-09T07:21:58.224Z,60.95
2016-08-09T07:22:57.530Z,60.66
2016-08-09T07:23:59.112Z,60.57
2016-08-09T07:24:57.495Z,59.99
2016-08-09T07:25:57.628Z,59.92
2016-08-09T07:26:57.510Z,59.83
2016-08-09T07:27:57.504Z,59.34
2016-08-09T07:28:57.401Z,58.96
2016-08-09T07:29:57.381Z,59.06
2016-08-09T07:30:57.457Z,58.39
2016-08-09T07:31:57.350Z,57.9
2016-08-09T07:32:57.413Z,58.13
2016-08-09T07:33:58.150Z,57.55
2016-08-09T07:34:57.305Z,57.65
2016-08-09T07:35:57.358Z,57.26
2016-08-09T07:36:57.277Z,56.49
2016-08-09T07:37:57.268Z,56.4
2016-08-09T07:38:57.937Z,56.59
2016-08-09T07:39:57.431Z,56.21
2016-08-09T07:40:59.670Z,55.91
2016-08-09T07:41:57.203Z,55.53
2016-08-09T07:42:57.188Z,55.82
2016-08-09T07:43:57.193Z,55.44
2016-08-09T07:44:57.161Z,55.82
2016-08-09T07:45:57.149Z,55.91
2016-08-09T07:46:57.129Z,55.24
2016-08-09T07:47:57.228Z,55.44
2016-08-09T07:48:57.495Z,55.05
2016-08-09T07:49:57.342Z,55.24
2016-08-09T07:50:57.176Z,55.24
2016-08-09T07:51:57.067Z,54.96
2016-08-09T07:52:57.040Z,55.15
2016-08-09T07:53:57.029Z,54.96
2016-08-09T07:54:57.012Z,54.67
2016-08-09T07:55:56.999Z,54
2016-08-09T07:56:57.746Z,53.52
2016-08-09T07:57:57.857Z,53.06
2016-08-09T07:58:57.813Z,53.06
2016-08-09T07:59:56.938Z,52.39
2016-08-09T08:00:57.621Z,52.39
2016-08-09T08:01:57.408Z,52.48
2016-08-09T08:02:57.909Z,51.53
2016-08-09T08:03:57.464Z,51.07
2016-08-09T08:04:57.574Z,50.87
2016-08-09T08:05:57.428Z,50.49
2016-08-09T08:06:57.292Z,49.91
2016-08-09T08:07:57.184Z,49.53
2016-08-09T08:08:56.815Z,49.15
2016-08-09T08:09:56.799Z,49.05
2016-08-09T08:10:56.787Z,48.76
2016-08-09T08:11:56.908Z,49.15
2016-08-09T08:12:56.759Z,48.79
2016-08-09T08:13:56.744Z,47.92
2016-08-09T08:14:56.800Z,46.77
2016-08-09T08:15:56.721Z,47.15
2016-08-09T08:16:56.709Z,46.47
2016-08-09T08:17:57.386Z,46.38
2016-08-09T08:18:57.291Z,45.99
2016-08-09T08:19:57.215Z,46.28
2016-08-09T08:20:57.330Z,45.61
2016-08-09T08:21:57.335Z,45.34
2016-08-09T08:22:56.753Z,44.84
2016-08-09T08:23:57.380Z,44.96
2016-08-09T08:24:56.796Z,44.28
2016-08-09T08:25:57.076Z,43.71
2016-08-09T08:26:56.869Z,43.32
2016-08-09T08:27:56.670Z,42.84
2016-08-09T08:28:56.563Z,42.46
2016-08-09T08:29:56.865Z,42.46
2016-08-09T08:30:56.729Z,42.09
2016-08-09T08:31:57.112Z,41.71
2016-08-09T08:32:57.712Z,42.09
2016-08-09T08:33:56.990Z,41.68
2016-08-09T08:34:57.955Z,41.49
2016-08-09T08:35:56.668Z,41.68
2016-08-09T08:36:58.117Z,41.68
2016-08-09T08:37:56.559Z,41.32
2016-08-09T08:38:56.938Z,40.94
2016-08-09T08:39:57.088Z,40.76
2016-08-09T08:40:57.393Z,40.66
2016-08-09T08:41:56.686Z,39.79
2016-08-09T08:42:56.529Z,39.51
2016-08-09T08:43:56.698Z,39.72
2016-08-09T08:44:56.830Z,39.43
2016-08-09T08:45:56.378Z,39.14
2016-08-09T08:46:56.430Z,38.95
2016-08-09T08:47:57.002Z,38.76
2016-08-09T08:48:56.341Z,38.46
2016-08-09T08:49:56.329Z,38.28
2016-08-09T08:50:56.312Z,38.1
2016-08-09T08:51:56.302Z,37.91
2016-08-09T08:52:56.398Z,37.62
2016-08-09T08:53:56.289Z,37.62
2016-08-09T08:54:56.793Z,37.25
2016-08-09T08:55:56.294Z,37.06
2016-08-09T08:56:57.231Z,36.67
2016-08-09T08:57:56.694Z,36.77
2016-08-09T08:58:56.273Z,36
2016-08-09T08:59:56.501Z,36.17
2016-08-09T09:00:57.429Z,36.17
2016-08-09T09:01:56.522Z,35.8
2016-08-09T09:02:56.197Z,35.61
2016-08-09T09:03:56.175Z,35.32
2016-08-09T09:04:56.528Z,35.22
2016-08-09T09:05:56.230Z,35.42
2016-08-09T09:06:56.511Z,34.94
2016-08-09T09:07:57.196Z,35.05
2016-08-09T09:08:57.035Z,34.95
2016-08-09T09:09:56.131Z,34.56
2016-08-09T09:10:56.174Z,34.94
2016-08-09T09:11:56.118Z,34.94
2016-08-09T09:12:56.142Z,34.55
2016-08-09T09:13:56.725Z,35.13
2016-08-09T09:14:56.341Z,34.64
2016-08-09T09:15:56.334Z,34.64
2016-08-09T09:16:56.063Z,34.06
2016-08-09T09:17:56.727Z,34.16
2016-08-09T09:19:56.644Z,33.6
2016-08-09T09:20:56.082Z,33.89
2016-08-09T09:21:56.942Z,33.6
2016-08-09T09:22:56.016Z,33.14
2016-08-09T09:23:56.016Z,33.14
2016-08-09T09:24:56.327Z,33.04
2016-08-09T09:25:56.697Z,32.86
2016-08-09T09:26:55.971Z,33.05
2016-08-09T09:27:56.392Z,33.52
2016-08-09T09:28:55.947Z,34
2016-08-09T09:29:56.081Z,33.6
2016-08-09T09:30:56.010Z,34.08
2016-08-09T09:31:56.100Z,34.76
2016-08-09T09:32:56.325Z,35.34
2016-08-09T09:34:55.893Z,37.04
2016-08-09T09:35:56.596Z,38.28
2016-08-09T09:36:55.900Z,39.72
2016-08-09T09:37:55.845Z,40.95
2016-08-09T09:38:55.831Z,41.61
2016-08-09T09:39:56.134Z,42.26
2016-08-09T09:40:56.393Z,42.55
2016-08-09T09:41:55.789Z,42.63
2016-08-09T09:42:56.595Z,43.4
2016-08-09T09:43:55.766Z,43.2
2016-08-09T09:44:55.739Z,43.4
2016-08-09T09:45:56.039Z,43.01
2016-08-09T09:46:56.383Z,43.01
2016-08-09T09:47:55.696Z,43.01
2016-08-09T09:49:55.863Z,42.46
2016-08-09T09:50:55.726Z,42.65
2016-08-09T09:51:55.693Z,42.93
2016-08-09T09:52:55.632Z,43.03
2016-08-09T09:53:55.625Z,43.23
2016-08-09T09:54:56.477Z,43.41
2016-08-09T09:55:55.591Z,43.71
2016-08-09T09:56:55.807Z,43.51
2016-08-09T09:57:55.822Z,43.71
2016-08-09T09:58:55.560Z,43.71
2016-08-09T09:59:55.547Z,43.99
2016-08-09T10:00:55.714Z,43.9
2016-08-09T10:01:55.506Z,43.51
2016-08-09T10:02:55.503Z,43.41
2016-08-09T10:03:55.665Z,43.8
2016-08-09T10:04:55.468Z,43.9
2016-08-09T10:05:55.532Z,43.51
2016-08-09T10:06:55.447Z,43.8
2016-08-09T10:07:55.433Z,43.51
2016-08-09T10:08:55.415Z,43.61
2016-08-09T10:09:55.405Z,43.3
2016-08-09T10:10:56.142Z,43.49
2016-08-09T10:11:55.373Z,43.59
2016-08-09T10:12:55.523Z,43.59
2016-08-09T10:13:55.470Z,44.07
2016-08-09T10:14:55.330Z,44.43
2016-08-09T10:15:55.310Z,44.72
2016-08-09T10:16:55.300Z,44.91
2016-08-09T10:17:55.283Z,44.82
2016-08-09T10:18:55.282Z,45.1
2016-08-09T10:19:55.959Z,45.01
2016-08-09T10:20:56.019Z,44.72
2016-08-09T10:21:55.348Z,44.43
2016-08-09T10:22:55.214Z,44.26
2016-08-09T10:23:55.197Z,43.88
2016-08-09T10:24:55.241Z,43.59
2016-08-09T10:25:55.215Z,43.49
2016-08-09T10:26:55.171Z,43.13
2016-08-09T10:27:55.174Z,42.84
2016-08-09T10:28:55.486Z,42.74
2016-08-09T10:29:55.120Z,42.67
2016-08-09T10:30:55.106Z,42.67
2016-08-09T10:31:55.091Z,43.23
2016-08-09T10:32:55.077Z,43.03
2016-08-09T10:33:55.064Z,43.71
2016-08-09T10:34:55.055Z,43.41
2016-08-09T10:35:55.041Z,43.32
2016-08-09T10:36:55.030Z,43.41
2016-08-09T10:37:55.034Z,43.61
2016-08-09T10:38:55.338Z,43.41
2016-08-09T10:39:54.985Z,43.49
2016-08-09T10:40:55.027Z,43.13
2016-08-09T10:41:54.952Z,42.91
2016-08-09T10:42:54.940Z,42.55
2016-08-09T10:43:54.922Z,43.23
2016-08-09T10:44:54.905Z,42.53
2016-08-09T10:45:54.892Z,43.11
2016-08-09T10:46:55.222Z,43.3
2016-08-09T10:47:54.865Z,43.59
2016-08-09T10:48:54.873Z,43.59
2016-08-09T10:49:54.977Z,43.59
2016-08-09T10:50:54.985Z,44.14
2016-08-09T10:51:54.973Z,44.14
2016-08-09T10:52:55.089Z,44.43
2016-08-09T10:53:54.830Z,44.72
2016-08-09T10:54:55.171Z,44.82
2016-08-09T10:55:54.778Z,44.91
2016-08-09T10:56:54.722Z,44.91
2016-08-09T10:57:54.708Z,44.82
2016-08-09T10:58:54.690Z,45.39
2016-08-09T10:59:54.671Z,45.29
2016-08-09T11:00:54.657Z,45.29
2016-08-09T11:01:54.826Z,45.1
2016-08-09T11:02:54.622Z,44.34
2016-08-09T11:03:55.384Z,44.24
2016-08-09T11:04:54.769Z,43.57
2016-08-09T11:05:55.534Z,43.66
2016-08-09T11:06:54.574Z,43.76
2016-08-09T11:07:55.339Z,43.37
2016-08-09T11:08:54.585Z,43.28
2016-08-09T11:09:54.518Z,42.41
2016-08-09T11:10:55.253Z,42.22
2016-08-09T11:11:54.475Z,42.22
2016-08-09T11:12:54.598Z,41.83
2016-08-09T11:13:54.453Z,41.76
2016-08-09T11:14:54.431Z,42.05
2016-08-09T11:15:54.412Z,41.86
2016-08-09T11:16:54.399Z,42.05
2016-08-09T11:17:54.410Z,41.95
2016-08-09T11:18:55.241Z,41.86
2016-08-09T11:19:55.068Z,42.14
2016-08-09T11:20:55.148Z,41.86
2016-08-09T11:21:54.461Z,41.95
2016-08-09T11:22:54.309Z,41.95
2016-08-09T11:23:54.292Z,41.68
2016-08-09T11:24:54.646Z,41.88
2016-08-09T11:25:54.262Z,41.78
2016-08-09T11:26:54.251Z,41.88
2016-08-09T11:27:54.430Z,41.97
2016-08-09T11:28:54.267Z,42.07
2016-08-09T11:29:54.201Z,41.88
2016-08-09T11:30:54.188Z,41.78
2016-08-09T11:31:54.224Z,41.97
2016-08-09T11:32:54.797Z,42.16
2016-08-09T11:33:54.478Z,42.07
2016-08-09T11:34:54.369Z,42.26
2016-08-09T11:35:54.833Z,42.36
2016-08-09T11:36:54.101Z,42.46
2016-08-09T11:37:54.841Z,42.84
2016-08-09T11:38:55.165Z,42.46
2016-08-09T11:39:54.830Z,41.88
2016-08-09T11:40:54.518Z,41.32
2016-08-09T11:41:55.177Z,41.03
2016-08-09T11:42:54.270Z,41.01
2016-08-09T11:43:54.256Z,40.91
2016-08-09T11:44:54.190Z,40.91
2016-08-09T11:45:53.986Z,40.81
2016-08-09T11:46:53.952Z,40.64
2016-08-09T11:47:54.656Z,40.64
2016-08-09T11:48:53.927Z,39.78
2016-08-09T11:49:53.909Z,40.07
2016-08-09T11:50:53.895Z,40.55
2016-08-09T11:51:53.883Z,40.36
2016-08-09T11:52:54.456Z,40.84
2016-08-09T11:53:53.853Z,40.94
2016-08-09T11:54:53.840Z,41.03
2016-08-09T11:55:53.858Z,41.2
2016-08-09T11:56:53.809Z,41.3
2016-08-09T11:57:54.315Z,40.91
2016-08-09T11:58:54.044Z,40.81
2016-08-09T11:59:54.495Z,40.63
2016-08-09T12:00:54.422Z,40.81
2016-08-09T12:01:54.602Z,40.91
2016-08-09T12:02:54.098Z,40.05
2016-08-09T12:03:54.685Z,40.05
2016-08-09T12:04:54.455Z,39.95
2016-08-09T12:05:54.356Z,40.14
2016-08-09T12:06:54.537Z,40.63
2016-08-09T12:07:54.033Z,40.14
2016-08-09T12:08:54.038Z,40.53
2016-08-09T12:09:54.031Z,40.89
2016-08-09T12:10:53.669Z,40.8
2016-08-09T12:11:53.641Z,41.76
2016-08-09T12:12:54.210Z,41.47
2016-08-09T12:13:54.168Z,41.95
2016-08-09T12:14:54.265Z,41.86
2016-08-09T12:15:53.700Z,42.24
2016-08-09T12:16:53.561Z,42.41
2016-08-09T12:17:54.334Z,42.7
2016-08-09T12:18:54.145Z,42.99
2016-08-09T12:19:53.644Z,42.7
2016-08-09T12:20:53.955Z,42.82
2016-08-09T12:21:53.548Z,42.82
2016-08-09T12:22:54.182Z,43.01
2016-08-09T12:23:53.626Z,43.01
2016-08-09T12:24:53.435Z,43.11
2016-08-09T12:25:53.522Z,42.82
2016-08-09T12:26:54.452Z,43.01
2016-08-09T12:27:54.379Z,42.89
2016-08-09T12:28:53.835Z,42.82
2016-08-09T12:29:53.849Z,42.43
2016-08-09T12:30:53.482Z,42.43
2016-08-09T12:31:53.996Z,42.6
2016-08-09T12:32:53.305Z,42.5
2016-08-09T12:33:53.747Z,42.24
2016-08-09T12:34:53.766Z,42.24
2016-08-09T12:35:53.847Z,42.14
2016-08-09T12:36:53.966Z,42.33
2016-08-09T12:37:53.963Z,42.14
2016-08-09T12:38:53.957Z,42.05
2016-08-09T12:39:53.976Z,42.14
2016-08-09T12:40:53.538Z,42.14
2016-08-09T12:41:53.498Z,41.86
2016-08-09T12:42:53.642Z,42.26
2016-08-09T12:43:53.138Z,42.93
2016-08-09T12:44:53.563Z,43.41
2016-08-09T12:45:53.335Z,43.9
2016-08-09T12:46:53.501Z,43.8
2016-08-09T12:47:53.303Z,44.19
2016-08-09T12:48:53.146Z,44.38
2016-08-09T12:49:54.417Z,44.48
2016-08-09T12:50:53.292Z,44.38
2016-08-09T12:51:53.071Z,44.09
2016-08-09T12:52:53.227Z,44.38
2016-08-09T12:53:53.285Z,44.28
2016-08-09T12:54:53.917Z,44.38
2016-08-09T12:55:53.047Z,44.38
2016-08-09T12:56:53.366Z,44.57
2016-08-09T12:57:53.274Z,44.28
2016-08-09T12:58:52.914Z,43.8
2016-08-09T12:59:53.132Z,43.9
2016-08-09T13:00:52.976Z,43.9
2016-08-09T13:01:53.152Z,43.8
2016-08-09T13:02:53.899Z,43.61
2016-08-09T13:03:53.136Z,43.61